createdAt,value
2019-03-05T00:01:34.185Z,5.97
2019-03-05T00:04:22.130Z,6.02
2019-03-05T00:07:10.006Z,6.08
2019-03-05T00:09:58.165Z,6.03
2019-03-05T00:12:45.937Z,5.98
2019-03-05T00:15:34.002Z,6.05
2019-03-05T00:18:21.968Z,6.03
2019-03-05T00:21:10.138Z,5.94
2019-03-05T00:24:26.338Z,5.87
2019-03-05T00:27:14.476Z,6.09
2019-03-05T00:30:27.596Z,5.95
2019-03-05T00:33:35.261Z,5.92
2019-03-05T00:36:28.038Z,6.03
2019-03-05T00:40:21.746Z,5.91
2019-03-05T00:43:40.057Z,5.74
2019-03-05T00:46:52.573Z,5.48
2019-03-05T00:49:53.607Z,5.26
2019-03-05T00:52:55.954Z,5.15
2019-03-05T00:56:31.267Z,5.18
2019-03-05T00:59:33.983Z,5.20
2019-03-05T01:02:35.570Z,5.16
2019-03-05T01:05:45.587Z,5.06
2019-03-05T01:08:34.176Z,5.03
2019-03-05T01:11:22.913Z,5.04
2019-03-05T01:14:11.117Z,5.07
2019-03-05T01:16:59.300Z,4.92
2019-03-05T01:19:47.516Z,5.15
2019-03-05T01:22:35.574Z,5.18
2019-03-05T01:25:28.972Z,5.22
2019-03-05T01:28:17.184Z,5.14
2019-03-05T01:31:39.824Z,5.31
2019-03-05T01:34:45.437Z,5.38
2019-03-05T01:37:33.324Z,5.33
2019-03-05T01:40:40.779Z,5.28
2019-03-05T01:43:29.021Z,5.26
2019-03-05T01:46:16.931Z,5.37
2019-03-05T01:49:05.532Z,5.33
2019-03-05T01:51:53.465Z,5.29
2019-03-05T01:54:41.300Z,5.39
2019-03-05T01:57:29.377Z,5.37
2019-03-05T02:00:18.474Z,5.40
2019-03-05T02:03:06.367Z,5.31
2019-03-05T02:05:54.324Z,5.48
2019-03-05T02:08:42.130Z,5.48
2019-03-05T02:11:30.665Z,5.52
2019-03-05T02:14:18.606Z,5.44
2019-03-05T02:17:06.601Z,5.48
2019-03-05T02:19:54.580Z,5.43
2019-03-05T02:22:46.249Z,5.45
2019-03-05T02:26:08.028Z,5.49
2019-03-05T02:29:32.010Z,5.45
2019-03-05T02:32:51.070Z,5.36
2019-03-05T02:36:03.814Z,5.33
2019-03-05T02:39:12.230Z,5.39
2019-03-05T02:42:20.279Z,5.30
2019-03-05T02:45:42.603Z,5.29
2019-03-05T02:49:21.101Z,5.30
2019-03-05T02:52:28.699Z,5.30
2019-03-05T02:55:42.505Z,5.31
2019-03-05T02:58:28.956Z,5.24
2019-03-05T03:01:42.066Z,5.18
2019-03-05T03:04:33.626Z,5.40
2019-03-05T03:07:21.528Z,5.39
2019-03-05T03:10:15.124Z,5.20
2019-03-05T03:13:03.023Z,5.18
2019-03-05T03:15:50.921Z,5.15
2019-03-05T03:18:39.266Z,5.16
2019-03-05T03:21:27.432Z,5.25
2019-03-05T03:24:15.702Z,5.37
2019-03-05T03:27:03.851Z,5.46
2019-03-05T03:29:51.977Z,5.57
2019-03-05T03:32:40.270Z,5.60
2019-03-05T03:35:28.067Z,5.44
2019-03-05T03:38:16.038Z,5.25
2019-03-05T03:41:04.514Z,4.87
2019-03-05T03:43:52.382Z,4.70
2019-03-05T03:46:40.286Z,4.89
2019-03-05T03:49:28.426Z,5.01
2019-03-05T03:52:16.590Z,4.86
2019-03-05T03:55:05.216Z,4.81
2019-03-05T03:57:53.921Z,4.71
2019-03-05T04:00:41.847Z,4.68
2019-03-05T04:03:29.920Z,4.60
2019-03-05T04:06:17.825Z,4.60
2019-03-05T04:09:09.773Z,4.62
2019-03-05T04:11:57.700Z,4.56
2019-03-05T04:14:46.149Z,4.44
2019-03-05T04:17:34.350Z,4.46
2019-03-05T04:20:28.339Z,4.27
2019-03-05T04:23:16.493Z,4.36
2019-03-05T04:26:04.576Z,4.37
2019-03-05T04:28:52.798Z,4.40
2019-03-05T04:31:41.066Z,4.36
2019-03-05T04:34:29.208Z,4.40
2019-03-05T04:37:17.241Z,4.42
2019-03-05T04:40:06.005Z,4.60
2019-03-05T04:42:54.145Z,4.55
2019-03-05T04:46:13.338Z,4.59
2019-03-05T04:49:32.178Z,4.59
2019-03-05T04:52:23.307Z,4.66
2019-03-05T04:55:11.341Z,4.61
2019-03-05T04:57:59.710Z,4.57
2019-03-05T05:00:47.723Z,4.62
2019-03-05T05:03:35.968Z,4.49
2019-03-05T05:06:24.094Z,4.51
2019-03-05T05:09:13.216Z,4.46
2019-03-05T05:12:01.520Z,4.53
2019-03-05T05:14:50.093Z,4.47
2019-03-05T05:17:39.543Z,4.58
2019-03-05T05:20:27.761Z,4.41
2019-03-05T05:23:16.422Z,4.36
2019-03-05T05:26:04.479Z,4.52
2019-03-05T05:28:52.899Z,4.49
2019-03-05T05:31:42.310Z,4.56
2019-03-05T05:34:30.274Z,4.51
2019-03-05T05:37:18.137Z,4.32
2019-03-05T05:40:25.329Z,4.39
2019-03-05T05:43:27.627Z,4.39
2019-03-05T05:46:15.600Z,4.48
2019-03-05T05:49:03.800Z,4.49
2019-03-05T05:51:52.013Z,4.50
2019-03-05T05:54:40.433Z,4.52
2019-03-05T05:57:28.745Z,4.52
2019-03-05T06:00:17.154Z,4.52
2019-03-05T06:03:05.442Z,4.39
2019-03-05T06:05:53.608Z,4.40
2019-03-05T06:08:41.458Z,4.37
2019-03-05T06:11:29.596Z,4.40
2019-03-05T06:14:17.304Z,4.45
2019-03-05T06:17:05.416Z,4.52
2019-03-05T06:19:53.263Z,4.41
2019-03-05T06:22:41.198Z,4.51
2019-03-05T06:25:29.372Z,4.58
2019-03-05T06:28:17.374Z,4.59
2019-03-05T06:31:05.218Z,4.55
2019-03-05T06:33:53.226Z,4.72
2019-03-05T06:36:57.532Z,4.84
2019-03-05T06:39:45.158Z,5.31
2019-03-05T06:42:33.614Z,5.70
2019-03-05T06:45:21.708Z,5.95
2019-03-05T06:48:09.706Z,6.13
2019-03-05T06:50:57.527Z,6.70
2019-03-05T06:53:45.358Z,7.43
2019-03-05T06:56:33.199Z,7.92
2019-03-05T06:59:21.252Z,8.29
2019-03-05T07:02:09.229Z,8.40
2019-03-05T07:04:57.599Z,8.78
2019-03-05T07:07:45.823Z,9.20
2019-03-05T07:10:52.348Z,8.94
2019-03-05T07:13:40.318Z,9.33
2019-03-05T07:16:58.101Z,9.43
2019-03-05T07:20:28.090Z,9.20
2019-03-05T07:23:57.500Z,7.72
2019-03-05T07:26:45.630Z,7.38
2019-03-05T07:29:33.247Z,6.85
2019-03-05T07:32:21.341Z,6.79
2019-03-05T07:35:10.983Z,6.77
2019-03-05T07:37:58.851Z,7.88
2019-03-05T07:40:46.833Z,7.76
2019-03-05T07:43:36.803Z,7.66
2019-03-05T07:46:24.395Z,8.07
2019-03-05T07:49:12.716Z,8.53
2019-03-05T07:52:01.012Z,8.81
2019-03-05T07:54:48.902Z,9.01
2019-03-05T07:57:37.053Z,8.65
2019-03-05T08:00:25.207Z,9.12
2019-03-05T08:03:13.455Z,8.80
2019-03-05T08:06:01.597Z,8.61
2019-03-05T08:09:25.854Z,8.91
2019-03-05T08:12:34.811Z,8.75
2019-03-05T08:16:01.709Z,8.60
2019-03-05T08:18:40.399Z,8.29
2019-03-05T08:21:28.240Z,8.49
2019-03-05T08:24:16.088Z,8.31
2019-03-05T08:27:04.077Z,8.86
2019-03-05T08:29:52.423Z,8.76
2019-03-05T08:32:40.220Z,8.51
2019-03-05T08:35:28.167Z,8.80
2019-03-05T08:38:16.284Z,9.45
2019-03-05T08:41:04.907Z,9.54
2019-03-05T08:43:54.365Z,8.92
2019-03-05T08:46:42.865Z,8.88
2019-03-05T08:49:31.174Z,9.34
2019-03-05T08:52:19.357Z,9.21
2019-03-05T08:55:08.255Z,9.33
2019-03-05T08:57:56.270Z,9.04
2019-03-05T09:00:44.324Z,8.89
2019-03-05T09:03:32.512Z,8.83
2019-03-05T09:06:20.566Z,9.15
2019-03-05T09:09:10.970Z,9.22
2019-03-05T09:11:58.886Z,8.79
2019-03-05T09:14:47.643Z,8.56
2019-03-05T09:17:35.544Z,8.45
2019-03-05T09:20:23.857Z,8.69
2019-03-05T09:23:11.625Z,8.84
2019-03-05T09:25:59.638Z,8.78
2019-03-05T09:28:47.515Z,8.01
2019-03-05T09:31:35.815Z,8.36
2019-03-05T09:34:23.805Z,8.30
2019-03-05T09:37:11.653Z,8.34
2019-03-05T09:39:59.801Z,8.32
2019-03-05T09:42:48.364Z,8.32
2019-03-05T09:45:36.722Z,8.40
2019-03-05T09:48:25.205Z,8.44
2019-03-05T09:51:13.323Z,8.31
2019-03-05T09:54:01.202Z,8.59
2019-03-05T09:56:49.319Z,8.65
2019-03-05T09:59:37.299Z,8.51
2019-03-05T10:02:25.266Z,8.63
2019-03-05T10:05:14.050Z,8.81
2019-03-05T10:08:02.340Z,8.91
2019-03-05T10:10:50.891Z,9.07
2019-03-05T10:13:38.662Z,9.10
2019-03-05T10:16:26.538Z,9.21
2019-03-05T10:19:14.606Z,9.49
2019-03-05T10:22:02.345Z,9.70
2019-03-05T10:24:50.444Z,9.76
2019-03-05T10:27:38.745Z,9.67
2019-03-05T10:30:28.430Z,9.78
2019-03-05T10:33:17.589Z,9.69
2019-03-05T10:36:05.603Z,9.72
2019-03-05T10:38:57.306Z,9.78
2019-03-05T10:41:43.446Z,10.01
2019-03-05T10:44:31.524Z,9.79
2019-03-05T10:47:20.212Z,10.03
2019-03-05T10:50:15.353Z,10.27
2019-03-05T10:52:59.955Z,10.04
2019-03-05T10:55:48.071Z,10.17
2019-03-05T10:58:36.225Z,10.14
2019-03-05T11:01:24.302Z,10.27
2019-03-05T11:04:12.320Z,10.21
2019-03-05T11:07:00.365Z,10.35
2019-03-05T11:09:48.700Z,10.43
2019-03-05T11:12:37.168Z,10.74
2019-03-05T11:15:26.282Z,10.99
2019-03-05T11:18:17.101Z,10.72
2019-03-05T11:21:05.906Z,10.18
2019-03-05T11:23:54.017Z,9.84
2019-03-05T11:26:42.293Z,9.50
2019-03-05T11:29:29.881Z,9.78
2019-03-05T11:32:17.825Z,10.06
2019-03-05T11:35:06.448Z,10.32
2019-03-05T11:37:54.637Z,10.53
2019-03-05T11:40:42.881Z,10.79
2019-03-05T11:43:31.196Z,10.93
2019-03-05T11:46:19.134Z,11.18
2019-03-05T11:49:07.261Z,11.33
2019-03-05T11:51:55.440Z,11.30
2019-03-05T11:54:43.369Z,11.53
2019-03-05T11:57:31.635Z,11.54
2019-03-05T12:00:28.429Z,11.78
2019-03-05T12:03:16.257Z,12.09
2019-03-05T12:06:04.473Z,12.66
2019-03-05T12:08:52.421Z,12.74
2019-03-05T12:11:40.489Z,12.84
2019-03-05T12:14:28.573Z,12.59
2019-03-05T12:17:16.645Z,12.25
2019-03-05T12:20:05.342Z,11.64
2019-03-05T12:22:53.242Z,11.44
2019-03-05T12:25:41.585Z,10.96
2019-03-05T12:28:29.727Z,10.93
2019-03-05T12:31:17.741Z,11.11
2019-03-05T12:34:06.199Z,11.00
2019-03-05T12:36:54.020Z,10.54
2019-03-05T12:39:41.731Z,10.61
2019-03-05T12:42:29.666Z,10.78
2019-03-05T12:45:18.078Z,10.79
2019-03-05T12:48:06.393Z,10.95
2019-03-05T12:50:54.540Z,11.14
2019-03-05T12:53:42.135Z,10.95
2019-03-05T12:56:30.503Z,11.24
2019-03-05T12:59:18.200Z,11.26
2019-03-05T13:02:06.477Z,10.75
2019-03-05T13:04:54.116Z,10.71
2019-03-05T13:07:42.353Z,10.71
2019-03-05T13:10:34.935Z,11.02
2019-03-05T13:13:19.950Z,11.21
2019-03-05T13:16:07.987Z,11.37
2019-03-05T13:18:58.249Z,11.63
2019-03-05T13:21:48.471Z,12.00
2019-03-05T13:24:35.096Z,12.29
2019-03-05T13:27:23.780Z,12.44
2019-03-05T13:30:17.368Z,12.26
2019-03-05T13:33:05.350Z,12.12
2019-03-05T13:35:53.534Z,12.08
2019-03-05T13:38:45.110Z,12.11
2019-03-05T13:41:31.291Z,12.10
2019-03-05T13:44:33.726Z,12.27
2019-03-05T13:47:21.463Z,11.82
2019-03-05T13:50:49.401Z,11.63
2019-03-05T13:54:09.485Z,12.12
2019-03-05T13:57:43.593Z,12.18
2019-03-05T14:00:31.503Z,11.86
2019-03-05T14:03:55.410Z,11.81
2019-03-05T14:06:59.958Z,11.81
2019-03-05T14:09:46.173Z,11.51
2019-03-05T14:12:33.977Z,11.26
2019-03-05T14:15:21.823Z,11.55
2019-03-05T14:18:09.551Z,11.81
2019-03-05T14:20:57.693Z,11.81
2019-03-05T14:23:45.768Z,11.65
2019-03-05T14:26:34.110Z,11.76
2019-03-05T14:29:22.279Z,11.93
2019-03-05T14:32:11.079Z,12.09
2019-03-05T14:35:01.925Z,11.89
2019-03-05T14:37:50.076Z,11.80
2019-03-05T14:40:38.342Z,11.74
2019-03-05T14:43:26.634Z,11.73
2019-03-05T14:46:14.474Z,11.77
2019-03-05T14:49:02.563Z,11.68
2019-03-05T14:51:51.071Z,11.52
2019-03-05T14:54:38.772Z,11.59
2019-03-05T14:57:26.633Z,11.72
2019-03-05T15:00:16.147Z,11.37
2019-03-05T15:03:04.310Z,11.20
2019-03-05T15:05:52.424Z,11.24
2019-03-05T15:08:40.325Z,11.08
2019-03-05T15:11:28.555Z,11.08
2019-03-05T15:14:16.410Z,11.14
2019-03-05T15:17:04.431Z,11.32
2019-03-05T15:19:52.506Z,11.32
2019-03-05T15:22:40.366Z,11.29
2019-03-05T15:25:28.735Z,11.44
2019-03-05T15:28:16.770Z,11.25
2019-03-05T15:31:08.034Z,11.39
2019-03-05T15:33:56.236Z,11.43
2019-03-05T15:36:44.208Z,11.39
2019-03-05T15:39:32.428Z,11.50
2019-03-05T15:42:21.350Z,11.31
2019-03-05T15:45:11.349Z,11.36
2019-03-05T15:47:59.173Z,11.49
2019-03-05T15:50:47.227Z,11.42
2019-03-05T15:53:35.252Z,11.22
2019-03-05T15:56:22.981Z,11.14
2019-03-05T15:59:11.159Z,11.24
2019-03-05T16:01:59.124Z,11.15
2019-03-05T16:04:47.479Z,11.16
2019-03-05T16:07:35.494Z,11.07
2019-03-05T16:10:23.177Z,10.92
2019-03-05T16:13:11.345Z,11.19
2019-03-05T16:15:59.490Z,11.16
2019-03-05T16:18:47.483Z,11.12
2019-03-05T16:21:37.104Z,11.09
2019-03-05T16:24:25.485Z,11.01
2019-03-05T16:27:14.474Z,10.97
2019-03-05T16:30:03.122Z,10.94
2019-03-05T16:32:59.972Z,10.97
2019-03-05T16:35:59.512Z,10.75
2019-03-05T16:39:18.783Z,10.74
2019-03-05T16:42:21.425Z,10.90
2019-03-05T16:45:41.457Z,10.62
2019-03-05T16:48:51.367Z,10.65
2019-03-05T16:52:07.281Z,10.61
2019-03-05T16:55:17.150Z,10.55
2019-03-05T16:58:17.245Z,10.47
2019-03-05T17:01:33.044Z,10.39
2019-03-05T17:04:31.549Z,10.36
2019-03-05T17:07:41.429Z,10.27
2019-03-05T17:10:57.357Z,10.14
2019-03-05T17:13:45.274Z,10.03
2019-03-05T17:16:34.959Z,10.03
2019-03-05T17:19:23.211Z,9.93
2019-03-05T17:22:11.287Z,9.92
2019-03-05T17:24:59.593Z,10.02
2019-03-05T17:27:47.298Z,9.99
2019-03-05T17:30:35.498Z,10.05
2019-03-05T17:33:23.237Z,10.02
2019-03-05T17:36:11.369Z,10.08
2019-03-05T17:38:59.563Z,10.03
2019-03-05T17:41:47.939Z,10.05
2019-03-05T17:44:35.942Z,9.93
2019-03-05T17:47:24.318Z,9.94
2019-03-05T17:50:12.403Z,10.10
2019-03-05T17:53:00.175Z,10.12
2019-03-05T17:55:50.335Z,10.05
2019-03-05T17:58:38.553Z,9.99
2019-03-05T18:01:26.599Z,9.95
2019-03-05T18:04:14.503Z,10.02
2019-03-05T18:07:02.466Z,10.00
2019-03-05T18:09:50.606Z,9.99
2019-03-05T18:12:39.032Z,9.98
2019-03-05T18:15:28.960Z,10.07
2019-03-05T18:18:17.277Z,9.98
2019-03-05T18:21:05.910Z,9.94
2019-03-05T18:23:54.259Z,9.98
2019-03-05T18:26:42.175Z,9.95
2019-03-05T18:29:30.415Z,9.97
2019-03-05T18:32:18.684Z,9.92
2019-03-05T18:35:06.979Z,9.93
2019-03-05T18:37:55.325Z,9.89
2019-03-05T18:40:43.500Z,9.63
2019-03-05T18:43:31.425Z,9.57
2019-03-05T18:46:19.634Z,9.51
2019-03-05T18:49:07.709Z,9.55
2019-03-05T18:51:55.597Z,9.52
2019-03-05T18:54:43.613Z,9.59
2019-03-05T18:57:31.499Z,9.46
2019-03-05T19:00:21.946Z,9.22
2019-03-05T19:03:10.108Z,9.21
2019-03-05T19:05:58.502Z,9.20
2019-03-05T19:08:46.311Z,9.19
2019-03-05T19:11:34.500Z,9.39
2019-03-05T19:14:22.863Z,9.33
2019-03-05T19:17:11.159Z,9.43
2019-03-05T19:19:59.645Z,9.48
2019-03-05T19:22:47.925Z,9.44
2019-03-05T19:25:36.081Z,9.32
2019-03-05T19:28:24.127Z,9.40
2019-03-05T19:31:12.393Z,9.41
2019-03-05T19:34:00.367Z,9.36
2019-03-05T19:36:48.380Z,9.42
2019-03-05T19:39:36.707Z,9.30
2019-03-05T19:42:24.575Z,9.23
2019-03-05T19:45:13.472Z,9.21
2019-03-05T19:48:01.471Z,9.15
2019-03-05T19:50:49.508Z,9.28
2019-03-05T19:53:37.166Z,9.14
2019-03-05T19:56:25.155Z,9.30
2019-03-05T19:59:13.299Z,9.33
2019-03-05T20:02:01.892Z,9.16
2019-03-05T20:04:49.997Z,9.11
2019-03-05T20:07:38.335Z,9.10
2019-03-05T20:10:26.399Z,9.02
2019-03-05T20:13:14.479Z,8.91
2019-03-05T20:16:03.133Z,8.86
2019-03-05T20:18:51.103Z,8.89
2019-03-05T20:21:39.098Z,8.96
2019-03-05T20:24:26.982Z,8.88
2019-03-05T20:27:16.386Z,8.73
2019-03-05T20:30:04.678Z,8.92
2019-03-05T20:32:52.668Z,8.80
2019-03-05T20:35:40.688Z,8.82
2019-03-05T20:38:28.695Z,8.89
2019-03-05T20:41:18.506Z,8.96
2019-03-05T20:44:09.785Z,8.86
2019-03-05T20:47:00.691Z,8.95
2019-03-05T20:49:50.929Z,8.79
2019-03-05T20:52:39.062Z,8.71
2019-03-05T20:55:27.218Z,8.59
2019-03-05T20:58:15.246Z,8.72
2019-03-05T21:01:04.809Z,8.65
2019-03-05T21:03:52.474Z,8.33
2019-03-05T21:06:41.253Z,8.43
2019-03-05T21:09:29.212Z,8.39
2019-03-05T21:12:16.990Z,8.19
2019-03-05T21:15:05.338Z,8.23
2019-03-05T21:17:54.098Z,8.11
2019-03-05T21:20:42.310Z,7.95
2019-03-05T21:23:30.033Z,7.95
2019-03-05T21:26:17.989Z,7.82
2019-03-05T21:29:06.248Z,7.86
2019-03-05T21:31:54.358Z,7.56
2019-03-05T21:34:42.868Z,7.53
2019-03-05T21:37:30.666Z,7.65
2019-03-05T21:40:20.583Z,7.53
2019-03-05T21:43:08.752Z,7.34
2019-03-05T21:45:59.450Z,7.14
2019-03-05T21:48:47.746Z,7.33
2019-03-05T21:51:35.448Z,7.20
2019-03-05T21:54:23.468Z,7.17
2019-03-05T21:57:11.151Z,7.22
2019-03-05T21:59:59.407Z,7.15
2019-03-05T22:02:47.622Z,7.19
2019-03-05T22:05:35.727Z,7.16
2019-03-05T22:08:23.897Z,7.16
2019-03-05T22:11:11.594Z,7.12
2019-03-05T22:13:59.535Z,7.07
2019-03-05T22:16:47.429Z,7.15
2019-03-05T22:19:35.401Z,7.21
2019-03-05T22:22:23.718Z,7.16
2019-03-05T22:25:13.100Z,7.07
2019-03-05T22:28:01.240Z,7.11
2019-03-05T22:30:49.177Z,6.98
2019-03-05T22:33:37.406Z,6.86
2019-03-05T22:36:25.790Z,6.93
2019-03-05T22:39:14.041Z,6.89
2019-03-05T22:42:01.909Z,6.90
2019-03-05T22:44:49.715Z,6.74
2019-03-05T22:47:37.873Z,6.71
2019-03-05T22:50:26.093Z,6.66
2019-03-05T22:53:14.260Z,6.59
2019-03-05T22:56:02.345Z,6.34
2019-03-05T22:58:50.795Z,6.28
2019-03-05T23:01:43.452Z,6.38
2019-03-05T23:04:39.810Z,6.22
2019-03-05T23:07:27.736Z,6.00
2019-03-05T23:10:16.818Z,5.83
2019-03-05T23:13:05.322Z,5.91
2019-03-05T23:15:53.326Z,5.66
2019-03-05T23:18:41.390Z,5.61
2019-03-05T23:21:29.183Z,5.75
2019-03-05T23:24:17.092Z,5.76
2019-03-05T23:27:05.221Z,5.92
2019-03-05T23:29:53.105Z,6.01
2019-03-05T23:32:41.533Z,6.04
2019-03-05T23:35:29.549Z,5.97
2019-03-05T23:38:17.775Z,5.91
2019-03-05T23:41:08.389Z,5.84
2019-03-05T23:43:55.974Z,5.74
2019-03-05T23:46:44.119Z,5.67
2019-03-05T23:49:32.245Z,5.51
2019-03-05T23:52:20.516Z,5.51
2019-03-05T23:55:08.674Z,5.55
2019-03-05T23:57:56.638Z,5.55
